createdAt,value
2019-02-06T00:01:22.357Z,68.00
2019-02-06T00:03:49.067Z,68.00
2019-02-06T00:06:15.396Z,68.00
2019-02-06T00:08:41.855Z,67.90
2019-02-06T00:11:08.576Z,67.90
2019-02-06T00:13:34.989Z,67.90
2019-02-06T00:16:01.805Z,67.80
2019-02-06T00:18:28.408Z,68.00
2019-02-06T00:20:55.113Z,68.00
2019-02-06T00:23:21.505Z,67.90
2019-02-06T00:25:47.805Z,67.80
2019-02-06T00:28:14.335Z,67.90
2019-02-06T00:30:40.838Z,67.80
2019-02-06T00:33:08.310Z,67.80
2019-02-06T00:35:34.950Z,67.80
2019-02-06T00:38:01.462Z,67.90
2019-02-06T00:40:27.979Z,67.90
2019-02-06T00:42:54.657Z,67.80
2019-02-06T00:45:21.053Z,68.00
2019-02-06T00:47:47.560Z,67.80
2019-02-06T00:50:15.312Z,67.80
2019-02-06T00:52:41.728Z,67.80
2019-02-06T00:55:09.050Z,67.80
2019-02-06T00:57:35.804Z,68.10
2019-02-06T01:00:06.337Z,67.80
2019-02-06T01:02:32.854Z,68.10
2019-02-06T01:04:59.516Z,67.80
2019-02-06T01:07:27.278Z,68.50
2019-02-06T01:09:54.116Z,68.20
2019-02-06T01:12:20.629Z,68.60
2019-02-06T01:14:46.959Z,68.60
2019-02-06T01:17:13.477Z,68.50
2019-02-06T01:19:40.032Z,68.30
2019-02-06T01:22:06.336Z,68.60
2019-02-06T01:24:32.628Z,68.20
2019-02-06T01:26:59.440Z,68.30
2019-02-06T01:29:26.347Z,68.20
2019-02-06T01:31:53.577Z,68.10
2019-02-06T01:34:20.386Z,68.40
2019-02-06T01:36:46.798Z,68.60
2019-02-06T01:39:13.425Z,68.50
2019-02-06T01:41:39.944Z,68.50
2019-02-06T01:44:06.489Z,68.50
2019-02-06T01:46:32.996Z,68.50
2019-02-06T01:48:59.492Z,68.50
2019-02-06T01:51:26.023Z,68.60
2019-02-06T01:53:52.521Z,68.60
2019-02-06T01:56:19.061Z,68.70
2019-02-06T01:58:45.470Z,68.60
2019-02-06T02:01:11.969Z,68.60
2019-02-06T02:03:38.277Z,68.80
2019-02-06T02:06:05.039Z,68.70
2019-02-06T02:08:34.246Z,68.90
2019-02-06T02:11:00.873Z,68.80
2019-02-06T02:13:27.609Z,68.90
2019-02-06T02:15:54.727Z,68.90
2019-02-06T02:18:21.450Z,68.80
2019-02-06T02:20:48.100Z,69.10
2019-02-06T02:23:14.988Z,69.10
2019-02-06T02:25:41.398Z,68.90
2019-02-06T02:28:07.722Z,68.90
2019-02-06T02:30:42.505Z,69.00
2019-02-06T02:33:09.133Z,69.10
2019-02-06T02:35:35.453Z,69.10
2019-02-06T02:38:01.858Z,69.30
2019-02-06T02:40:28.290Z,69.10
2019-02-06T02:42:54.695Z,69.10
2019-02-06T02:45:21.122Z,69.30
2019-02-06T02:47:47.530Z,69.80
2019-02-06T02:50:13.843Z,69.30
2019-02-06T02:52:40.258Z,69.10
2019-02-06T02:55:08.667Z,69.10
2019-02-06T02:57:35.210Z,69.10
2019-02-06T03:00:04.025Z,69.00
2019-02-06T03:02:32.379Z,69.20
2019-02-06T03:04:59.569Z,69.10
2019-02-06T03:07:25.952Z,69.00
2019-02-06T03:09:52.503Z,69.10
2019-02-06T03:12:18.901Z,69.10
2019-02-06T03:14:45.217Z,69.20
2019-02-06T03:17:11.724Z,69.30
2019-02-06T03:19:38.225Z,69.30
2019-02-06T03:22:04.556Z,69.40
2019-02-06T03:24:31.279Z,69.30
2019-02-06T03:26:57.584Z,69.30
2019-02-06T03:29:24.133Z,69.40
2019-02-06T03:31:50.763Z,69.60
2019-02-06T03:34:17.324Z,69.30
2019-02-06T03:36:43.645Z,69.70
2019-02-06T03:39:10.382Z,69.70
2019-02-06T03:41:36.782Z,69.80
2019-02-06T03:44:03.618Z,69.80
2019-02-06T03:46:30.025Z,69.80
2019-02-06T03:48:57.571Z,69.80
2019-02-06T03:51:23.856Z,69.80
2019-02-06T03:53:50.166Z,69.70
2019-02-06T03:56:16.480Z,69.70
2019-02-06T03:58:42.885Z,70.00
2019-02-06T04:01:11.455Z,69.60
2019-02-06T04:03:38.223Z,69.50
2019-02-06T04:06:04.717Z,69.80
2019-02-06T04:08:31.334Z,69.70
2019-02-06T04:10:58.308Z,70.00
2019-02-06T04:13:24.639Z,70.00
2019-02-06T04:15:51.150Z,71.40
2019-02-06T04:18:17.585Z,70.80
2019-02-06T04:20:44.237Z,71.10
2019-02-06T04:23:12.500Z,70.90
2019-02-06T04:25:38.837Z,70.70
2019-02-06T04:28:05.445Z,70.80
2019-02-06T04:30:31.952Z,71.20
2019-02-06T04:32:59.353Z,71.20
2019-02-06T04:35:25.831Z,71.50
2019-02-06T04:37:52.443Z,72.70
2019-02-06T04:40:19.460Z,72.40
2019-02-06T04:42:46.261Z,72.10
2019-02-06T04:45:15.187Z,72.20
2019-02-06T04:47:41.862Z,72.00
2019-02-06T04:50:10.496Z,72.10
2019-02-06T04:52:37.259Z,72.20
2019-02-06T04:55:06.151Z,72.20
2019-02-06T04:57:32.892Z,72.40
2019-02-06T04:59:59.296Z,72.10
2019-02-06T05:02:32.351Z,71.60
2019-02-06T05:04:58.624Z,71.90
2019-02-06T05:07:25.190Z,71.80
2019-02-06T05:09:51.854Z,71.70
2019-02-06T05:12:18.503Z,72.40
2019-02-06T05:14:45.521Z,71.50
2019-02-06T05:17:12.032Z,71.20
2019-02-06T05:19:38.741Z,71.10
2019-02-06T05:22:05.349Z,71.00
2019-02-06T05:24:31.985Z,70.80
2019-02-06T05:26:58.314Z,70.70
2019-02-06T05:29:24.629Z,70.60
2019-02-06T05:31:50.922Z,70.50
2019-02-06T05:34:17.665Z,70.60
2019-02-06T05:36:44.074Z,71.30
2019-02-06T05:39:11.002Z,70.50
2019-02-06T05:41:37.413Z,70.40
2019-02-06T05:44:04.069Z,70.30
2019-02-06T05:46:30.520Z,70.30
2019-02-06T05:48:56.901Z,70.20
2019-02-06T05:51:23.441Z,70.00
2019-02-06T05:53:49.853Z,70.10
2019-02-06T05:56:16.259Z,70.00
2019-02-06T05:58:42.793Z,69.80
2019-02-06T06:01:10.016Z,69.60
2019-02-06T06:03:36.557Z,69.80
2019-02-06T06:06:02.870Z,69.70
2019-02-06T06:08:29.300Z,69.60
2019-02-06T06:10:55.876Z,69.60
2019-02-06T06:13:22.781Z,69.40
2019-02-06T06:15:49.227Z,69.40
2019-02-06T06:18:15.734Z,69.50
2019-02-06T06:20:42.239Z,69.20
2019-02-06T06:23:09.052Z,70.00
2019-02-06T06:25:35.578Z,69.20
2019-02-06T06:28:02.499Z,69.30
2019-02-06T06:30:28.893Z,69.10
2019-02-06T06:32:55.576Z,69.50
2019-02-06T06:35:22.185Z,69.40
2019-02-06T06:37:57.817Z,69.20
2019-02-06T06:40:21.381Z,69.10
2019-02-06T06:42:48.025Z,69.10
2019-02-06T06:45:16.517Z,69.00
2019-02-06T06:47:42.925Z,68.90
2019-02-06T06:50:14.907Z,68.90
2019-02-06T06:52:41.891Z,68.90
2019-02-06T06:55:10.515Z,69.10
2019-02-06T06:57:37.246Z,69.00
2019-02-06T07:00:13.572Z,69.00
2019-02-06T07:02:39.876Z,69.10
2019-02-06T07:05:08.886Z,69.10
2019-02-06T07:07:35.643Z,69.10
2019-02-06T07:10:05.368Z,69.20
2019-02-06T07:12:32.491Z,69.10
2019-02-06T07:14:59.405Z,69.10
2019-02-06T07:17:26.080Z,69.30
2019-02-06T07:19:52.412Z,69.10
2019-02-06T07:22:18.817Z,69.10
2019-02-06T07:24:45.692Z,69.20
2019-02-06T07:27:12.207Z,69.10
2019-02-06T07:29:38.525Z,68.90
2019-02-06T07:32:05.162Z,69.00
2019-02-06T07:34:31.948Z,69.20
2019-02-06T07:36:58.282Z,69.50
2019-02-06T07:39:25.285Z,69.00
2019-02-06T07:41:52.123Z,68.90
2019-02-06T07:44:18.965Z,69.00
2019-02-06T07:46:45.807Z,68.90
2019-02-06T07:49:12.966Z,69.00
2019-02-06T07:51:39.599Z,69.00
2019-02-06T07:54:06.448Z,68.90
2019-02-06T07:56:33.120Z,69.00
2019-02-06T07:59:00.019Z,69.20
2019-02-06T08:01:26.630Z,70.00
2019-02-06T08:03:53.280Z,70.60
2019-02-06T08:06:20.241Z,70.80
2019-02-06T08:08:47.012Z,71.00
2019-02-06T08:11:13.803Z,71.00
2019-02-06T08:13:40.928Z,70.90
2019-02-06T08:16:07.656Z,70.90
2019-02-06T08:18:34.862Z,70.80
2019-02-06T08:21:01.613Z,70.80
2019-02-06T08:23:28.561Z,70.70
2019-02-06T08:25:55.521Z,70.60
2019-02-06T08:28:22.433Z,70.60
2019-02-06T08:30:49.276Z,70.60
2019-02-06T08:33:16.229Z,70.60
2019-02-06T08:35:43.273Z,70.50
2019-02-06T08:38:10.442Z,70.40
2019-02-06T08:40:37.292Z,70.50
2019-02-06T08:43:05.268Z,70.40
2019-02-06T08:45:32.094Z,70.40
2019-02-06T08:47:59.051Z,70.40
2019-02-06T08:50:26.569Z,70.30
2019-02-06T08:52:53.326Z,70.20
2019-02-06T08:55:25.606Z,70.30
2019-02-06T08:57:52.354Z,70.40
2019-02-06T09:00:29.669Z,70.90
2019-02-06T09:02:56.343Z,70.70
2019-02-06T09:05:23.586Z,71.80
2019-02-06T09:07:50.380Z,80.50
2019-02-06T09:10:25.184Z,84.50
2019-02-06T09:12:52.491Z,88.70
2019-02-06T09:15:19.182Z,90.40
2019-02-06T09:17:45.704Z,91.20
2019-02-06T09:20:23.671Z,91.50
2019-02-06T09:22:50.330Z,91.90
2019-02-06T09:25:18.792Z,92.10
2019-02-06T09:27:45.553Z,83.70
2019-02-06T09:30:15.248Z,74.90
2019-02-06T09:32:41.598Z,77.30
2019-02-06T09:35:08.482Z,84.10
2019-02-06T09:37:35.270Z,88.60
2019-02-06T09:40:02.807Z,90.20
2019-02-06T09:42:29.342Z,90.60
2019-02-06T09:44:55.901Z,91.10
2019-02-06T09:47:22.207Z,91.20
2019-02-06T09:49:49.931Z,81.70
2019-02-06T09:52:16.609Z,71.00
2019-02-06T09:54:43.093Z,80.40
2019-02-06T09:57:09.646Z,82.70
2019-02-06T09:59:36.658Z,83.00
2019-02-06T10:02:03.279Z,83.90
2019-02-06T10:04:29.843Z,84.00
2019-02-06T10:06:56.389Z,83.90
2019-02-06T10:09:23.291Z,83.80
2019-02-06T10:11:49.901Z,83.60
2019-02-06T10:14:16.225Z,83.50
2019-02-06T10:16:42.847Z,83.20
2019-02-06T10:19:09.747Z,82.70
2019-02-06T10:21:36.393Z,82.50
2019-02-06T10:24:02.677Z,83.00
2019-02-06T10:26:29.618Z,82.40
2019-02-06T10:28:56.143Z,81.90
2019-02-06T10:31:22.546Z,82.00
2019-02-06T10:33:48.997Z,81.70
2019-02-06T10:36:15.478Z,81.30
2019-02-06T10:38:42.381Z,80.80
2019-02-06T10:41:08.665Z,81.20
2019-02-06T10:43:35.862Z,81.20
2019-02-06T10:46:02.586Z,81.20
2019-02-06T10:48:28.901Z,81.20
2019-02-06T10:50:58.242Z,81.30
2019-02-06T10:53:24.130Z,81.80
2019-02-06T10:55:50.778Z,82.70
2019-02-06T10:58:17.802Z,82.50
2019-02-06T11:00:52.939Z,81.80
2019-02-06T11:03:19.508Z,81.90
2019-02-06T11:05:49.987Z,81.60
2019-02-06T11:08:25.679Z,82.00
2019-02-06T11:10:52.522Z,81.70
2019-02-06T11:13:18.817Z,80.90
2019-02-06T11:15:45.273Z,80.20
2019-02-06T11:18:11.941Z,81.30
2019-02-06T11:20:38.828Z,81.00
2019-02-06T11:23:06.046Z,79.70
2019-02-06T11:25:32.585Z,79.20
2019-02-06T11:27:59.018Z,77.10
2019-02-06T11:30:31.152Z,76.40
2019-02-06T11:32:57.870Z,78.60
2019-02-06T11:35:24.181Z,78.00
2019-02-06T11:37:50.992Z,79.20
2019-02-06T11:40:22.044Z,77.70
2019-02-06T11:42:48.861Z,77.20
2019-02-06T11:45:17.769Z,76.90
2019-02-06T11:47:45.078Z,76.80
2019-02-06T11:50:15.180Z,76.50
2019-02-06T11:52:41.718Z,77.00
2019-02-06T11:55:11.343Z,75.80
2019-02-06T11:57:37.652Z,75.60
2019-02-06T12:00:11.758Z,75.70
2019-02-06T12:02:39.138Z,75.40
2019-02-06T12:05:07.239Z,75.70
2019-02-06T12:07:33.557Z,75.60
2019-02-06T12:10:09.434Z,75.40
2019-02-06T12:12:28.178Z,75.00
2019-02-06T12:14:54.478Z,75.10
2019-02-06T12:17:20.989Z,75.30
2019-02-06T12:19:47.729Z,75.70
2019-02-06T12:22:14.624Z,75.50
2019-02-06T12:24:40.930Z,75.40
2019-02-06T12:27:07.340Z,75.80
2019-02-06T12:29:33.634Z,75.90
2019-02-06T12:32:00.053Z,75.80
2019-02-06T12:34:26.672Z,75.80
2019-02-06T12:36:53.082Z,75.80
2019-02-06T12:39:22.472Z,75.80
2019-02-06T12:41:47.614Z,75.80
2019-02-06T12:44:14.161Z,76.20
2019-02-06T12:46:41.277Z,76.30
2019-02-06T12:49:08.044Z,76.40
2019-02-06T12:51:34.369Z,76.50
2019-02-06T12:54:00.924Z,76.50
2019-02-06T12:56:27.525Z,76.40
2019-02-06T12:58:54.407Z,76.50
2019-02-06T13:01:21.132Z,76.30
2019-02-06T13:03:47.748Z,76.60
2019-02-06T13:06:14.166Z,76.60
2019-02-06T13:08:41.361Z,76.90
2019-02-06T13:11:07.997Z,77.20
2019-02-06T13:13:34.859Z,77.10
2019-02-06T13:16:01.162Z,77.00
2019-02-06T13:18:27.466Z,76.80
2019-02-06T13:20:53.898Z,77.00
2019-02-06T13:23:20.301Z,76.90
2019-02-06T13:25:46.606Z,76.90
2019-02-06T13:28:13.525Z,77.80
2019-02-06T13:30:40.147Z,77.60
2019-02-06T13:33:07.090Z,76.20
2019-02-06T13:35:33.401Z,70.10
2019-02-06T13:37:59.907Z,62.90
2019-02-06T13:40:27.743Z,62.40
2019-02-06T13:42:54.727Z,62.50
2019-02-06T13:45:27.834Z,63.40
2019-02-06T13:47:54.237Z,62.20
2019-02-06T13:50:22.416Z,62.10
2019-02-06T13:52:48.978Z,64.90
2019-02-06T13:55:15.776Z,66.40
2019-02-06T13:57:42.176Z,67.20
2019-02-06T14:00:14.668Z,68.40
2019-02-06T14:02:41.473Z,69.50
2019-02-06T14:05:08.228Z,69.80
2019-02-06T14:07:34.523Z,70.40
2019-02-06T14:10:01.140Z,71.00
2019-02-06T14:12:27.613Z,71.50
2019-02-06T14:14:53.917Z,71.80
2019-02-06T14:17:20.635Z,72.10
2019-02-06T14:19:47.133Z,72.40
2019-02-06T14:22:13.866Z,72.80
2019-02-06T14:24:43.165Z,73.00
2019-02-06T14:27:13.267Z,73.00
2019-02-06T14:30:09.769Z,73.40
2019-02-06T14:32:40.373Z,74.50
2019-02-06T14:35:34.960Z,74.70
2019-02-06T14:38:38.474Z,75.80
2019-02-06T14:41:08.950Z,76.70
2019-02-06T14:43:48.149Z,78.10
2019-02-06T14:46:43.349Z,77.80
2019-02-06T14:49:16.758Z,77.40
2019-02-06T14:52:17.152Z,78.20
2019-02-06T14:54:47.253Z,77.80
2019-02-06T14:57:29.702Z,79.10
2019-02-06T14:59:59.809Z,80.20
2019-02-06T15:02:42.073Z,78.70
2019-02-06T15:05:21.261Z,80.10
2019-02-06T15:07:51.552Z,78.90
2019-02-06T15:10:28.034Z,78.40
2019-02-06T15:13:00.932Z,80.00
2019-02-06T15:15:37.153Z,78.00
2019-02-06T15:18:28.692Z,78.00
2019-02-06T15:21:04.617Z,79.10
2019-02-06T15:23:37.506Z,78.90
2019-02-06T15:26:16.404Z,77.10
2019-02-06T15:28:46.803Z,78.10
2019-02-06T15:31:28.896Z,77.90
2019-02-06T15:34:33.047Z,77.30
2019-02-06T15:37:18.407Z,77.50
2019-02-06T15:40:00.713Z,78.00
2019-02-06T15:42:31.206Z,77.60
2019-02-06T15:45:16.533Z,77.10
2019-02-06T15:47:52.984Z,77.60
2019-02-06T15:50:42.304Z,76.20
2019-02-06T15:53:15.449Z,76.00
2019-02-06T15:55:51.313Z,76.60
2019-02-06T15:58:42.853Z,76.90
2019-02-06T16:01:34.360Z,77.50
2019-02-06T16:04:49.437Z,77.20
2019-02-06T16:07:43.803Z,78.00
2019-02-06T16:10:35.058Z,77.00
2019-02-06T16:13:35.168Z,77.60
2019-02-06T16:16:20.711Z,77.80
2019-02-06T16:18:59.880Z,77.50
2019-02-06T16:21:39.396Z,76.90
2019-02-06T16:24:15.260Z,75.90
2019-02-06T16:26:51.339Z,75.80
2019-02-06T16:29:41.070Z,77.00
2019-02-06T16:32:28.634Z,77.40
2019-02-06T16:35:16.417Z,76.80
2019-02-06T16:38:01.229Z,76.60
2019-02-06T16:40:47.025Z,75.90
2019-02-06T16:43:52.899Z,75.80
2019-02-06T16:46:25.930Z,75.90
2019-02-06T16:49:08.494Z,75.80
2019-02-06T16:51:41.636Z,75.80
2019-02-06T16:54:12.183Z,75.80
2019-02-06T16:56:42.318Z,75.80
2019-02-06T16:59:32.596Z,76.40
2019-02-06T17:02:28.563Z,76.40
2019-02-06T17:05:13.633Z,67.70
2019-02-06T17:07:46.514Z,66.70
2019-02-06T17:10:34.144Z,70.70
2019-02-06T17:13:30.193Z,71.00
2019-02-06T17:16:21.364Z,71.00
2019-02-06T17:18:54.930Z,71.50
2019-02-06T17:21:37.001Z,71.60
2019-02-06T17:24:16.090Z,71.70
2019-02-06T17:26:58.278Z,72.10
2019-02-06T17:29:43.045Z,72.10
2019-02-06T17:32:33.072Z,72.50
2019-02-06T17:35:15.356Z,73.00
2019-02-06T17:38:02.215Z,73.10
2019-02-06T17:40:35.592Z,73.00
2019-02-06T17:43:30.196Z,74.20
2019-02-06T17:46:03.428Z,73.60
2019-02-06T17:48:37.323Z,74.00
2019-02-06T17:51:15.935Z,74.10
2019-02-06T17:53:46.209Z,74.20
2019-02-06T17:56:12.518Z,73.90
2019-02-06T17:58:39.032Z,74.10
2019-02-06T18:01:09.506Z,74.10
2019-02-06T18:03:38.833Z,74.00
2019-02-06T18:06:05.483Z,74.20
2019-02-06T18:08:32.321Z,74.00
2019-02-06T18:10:58.911Z,74.20
2019-02-06T18:13:25.311Z,74.30
2019-02-06T18:15:51.826Z,74.60
2019-02-06T18:18:18.669Z,75.80
2019-02-06T18:20:45.340Z,75.80
2019-02-06T18:23:11.749Z,75.20
2019-02-06T18:25:38.162Z,75.80
2019-02-06T18:28:04.665Z,75.90
2019-02-06T18:30:31.106Z,75.90
2019-02-06T18:32:58.303Z,76.30
2019-02-06T18:35:24.617Z,75.60
2019-02-06T18:37:51.050Z,75.40
2019-02-06T18:40:17.566Z,75.60
2019-02-06T18:42:44.673Z,75.90
2019-02-06T18:45:14.490Z,75.90
2019-02-06T18:47:40.784Z,76.00
2019-02-06T18:50:14.025Z,75.90
2019-02-06T18:52:40.804Z,75.90
2019-02-06T18:55:10.417Z,75.80
2019-02-06T18:57:36.834Z,76.00
2019-02-06T19:00:10.298Z,75.90
2019-02-06T19:02:37.029Z,76.00
2019-02-06T19:05:07.177Z,75.90
2019-02-06T19:07:39.994Z,75.90
2019-02-06T19:10:13.148Z,75.90
2019-02-06T19:12:47.874Z,75.90
2019-02-06T19:15:10.496Z,76.20
2019-02-06T19:17:37.105Z,75.80
2019-02-06T19:20:08.056Z,76.10
2019-02-06T19:22:34.706Z,76.40
2019-02-06T19:25:01.341Z,76.20
2019-02-06T19:27:27.976Z,76.00
2019-02-06T19:29:54.418Z,75.70
2019-02-06T19:32:20.954Z,75.90
2019-02-06T19:34:47.628Z,75.90
2019-02-06T19:37:15.011Z,75.90
2019-02-06T19:39:41.526Z,76.40
2019-02-06T19:42:08.774Z,76.30
2019-02-06T19:44:35.663Z,76.40
2019-02-06T19:47:02.060Z,76.20
2019-02-06T19:49:28.630Z,76.40
2019-02-06T19:51:55.018Z,76.00
2019-02-06T19:54:23.512Z,76.20
2019-02-06T19:56:50.071Z,76.20
2019-02-06T19:59:16.587Z,75.90
2019-02-06T20:01:43.409Z,75.70
2019-02-06T20:04:10.717Z,76.50
2019-02-06T20:06:37.077Z,75.90
2019-02-06T20:09:05.612Z,75.70
2019-02-06T20:11:32.015Z,75.70
2019-02-06T20:13:58.673Z,75.70
2019-02-06T20:16:25.409Z,76.50
2019-02-06T20:18:52.007Z,75.40
2019-02-06T20:21:18.411Z,75.60
2019-02-06T20:23:44.826Z,75.00
2019-02-06T20:26:11.224Z,75.10
2019-02-06T20:28:38.253Z,75.10
2019-02-06T20:31:04.705Z,74.90
2019-02-06T20:33:31.125Z,75.60
2019-02-06T20:35:57.584Z,74.40
2019-02-06T20:38:23.916Z,74.60
2019-02-06T20:40:50.450Z,75.30
2019-02-06T20:43:22.205Z,74.30
2019-02-06T20:45:45.786Z,74.50
2019-02-06T20:48:12.101Z,74.30
2019-02-06T20:50:39.236Z,74.30
2019-02-06T20:53:05.906Z,74.40
2019-02-06T20:55:32.455Z,74.30
2019-02-06T20:57:58.774Z,74.30
2019-02-06T21:00:30.806Z,74.50
2019-02-06T21:02:57.758Z,74.40
2019-02-06T21:05:24.284Z,74.30
2019-02-06T21:07:50.730Z,74.30
2019-02-06T21:10:23.381Z,74.40
2019-02-06T21:12:49.803Z,74.40
2019-02-06T21:15:16.454Z,74.50
2019-02-06T21:17:43.315Z,74.50
2019-02-06T21:20:12.633Z,75.10
2019-02-06T21:22:39.153Z,74.20
2019-02-06T21:25:09.629Z,74.20
2019-02-06T21:27:36.277Z,74.30
2019-02-06T21:30:06.414Z,74.10
2019-02-06T21:32:32.813Z,74.20
2019-02-06T21:34:59.290Z,74.30
2019-02-06T21:37:27.131Z,74.00
2019-02-06T21:39:53.829Z,74.00
2019-02-06T21:42:20.280Z,74.10
2019-02-06T21:44:47.198Z,74.00
2019-02-06T21:47:13.495Z,74.10
2019-02-06T21:49:39.816Z,74.10
2019-02-06T21:52:06.348Z,74.20
2019-02-06T21:54:32.852Z,74.10
2019-02-06T21:56:59.293Z,74.00
2019-02-06T21:59:25.824Z,74.00
2019-02-06T22:01:52.364Z,73.90
2019-02-06T22:04:19.080Z,74.00
2019-02-06T22:06:45.573Z,74.10
2019-02-06T22:09:11.897Z,74.10
2019-02-06T22:11:38.309Z,74.30
2019-02-06T22:14:04.822Z,74.10
2019-02-06T22:16:31.477Z,74.00
2019-02-06T22:18:57.883Z,74.00
2019-02-06T22:21:24.206Z,73.90
2019-02-06T22:23:51.254Z,73.70
2019-02-06T22:26:17.687Z,74.00
2019-02-06T22:28:44.309Z,73.70
2019-02-06T22:31:10.947Z,73.90
2019-02-06T22:33:37.248Z,74.00
2019-02-06T22:36:03.771Z,73.90
2019-02-06T22:38:30.193Z,73.80
2019-02-06T22:40:56.654Z,73.80
2019-02-06T22:43:23.516Z,73.80
2019-02-06T22:45:49.957Z,73.90
2019-02-06T22:48:16.637Z,73.90
2019-02-06T22:50:43.208Z,73.70
2019-02-06T22:53:10.066Z,73.90
2019-02-06T22:55:36.485Z,73.70
2019-02-06T22:58:02.805Z,73.70
2019-02-06T23:00:43.753Z,73.70
2019-02-06T23:03:10.064Z,73.70
2019-02-06T23:05:36.470Z,73.60
2019-02-06T23:08:02.803Z,73.60
2019-02-06T23:10:29.334Z,73.90
2019-02-06T23:12:55.725Z,74.00
2019-02-06T23:15:22.149Z,74.10
2019-02-06T23:17:48.759Z,74.00
2019-02-06T23:20:16.121Z,73.90
2019-02-06T23:22:42.432Z,74.10
2019-02-06T23:25:08.945Z,74.10
2019-02-06T23:27:35.264Z,74.00
2019-02-06T23:30:01.661Z,74.30
2019-02-06T23:32:28.077Z,74.30
2019-02-06T23:34:54.482Z,74.30
2019-02-06T23:37:21.659Z,74.20
2019-02-06T23:39:48.096Z,74.50
2019-02-06T23:42:14.731Z,74.40
2019-02-06T23:44:41.277Z,74.50
2019-02-06T23:47:07.598Z,74.50
2019-02-06T23:49:33.999Z,74.40
2019-02-06T23:52:00.316Z,74.70
2019-02-06T23:54:26.608Z,74.70
2019-02-06T23:56:53.537Z,75.70
2019-02-06T23:59:19.957Z,74.70
